Terminal Aerodrome Forecast
Issued by NWS Tulsa, OK

Home | Current Version | Previous Version | Text Only | Print | Product List | Glossary On
Versions: 1 2 3 4 5 6 7 8 9 10 11 12 13 14 15 16 17 18 19 20
000
FTUS44 KTSA 181720
TAFFSM
TAF
KFSM 181720Z 1818/1918 VRB05KT P6SM FEW025
     FM182100 22006KT P6SM VCTS SCT025CB
     FM190200 09003KT P6SM BKN050 BKN250
     FM191500 VRB04KT P6SM BKN250=

USA.gov is the U.S. government's official web portal to all federal, state and local government web resources and services.